Hundvaag 1 weather for Jan 1989
Month no. 19
Obs.
Da.
Temp. Dew Point Precip. Wind
Speed
Wind gusts Cloud cover Press. Humidity Wind dir. Sunny OPT
01.01.1989 6,3   3,1                
02.01.1989 6,9   2,4                
03.01.1989 5,0   3,9                
04.01.1989 4,8   1,7                
05.01.1989 4,0   11,4                
06.01.1989 -0,5   1,9                
07.01.1989 2,1   4,1                
08.01.1989 7,5   12,0             1  
09.01.1989 4,5   7,0                
10.01.1989 3,1   6,1                
11.01.1989 0,9   4,0                
12.01.1989 5,7   37,4                
13.01.1989 4,1   12,0             1  
14.01.1989 4,1   14,9                
15.01.1989 8,1   8,9                
16.01.1989 7,3   23,3                
17.01.1989 4,2   4,1             1  
18.01.1989 5,9   10,1                
19.01.1989 7,0   10,3                
20.01.1989 6,2   1,1                
21.01.1989 5,1   0,2                
22.01.1989 2,8   8,2             1  
23.01.1989 5,0   12,1                
24.01.1989 5,2   1,7                
25.01.1989 5,1   1,0                
26.01.1989 3,3   0,1                
27.01.1989 5,5   3,7                
28.01.1989 3,0   23,3             1  
29.01.1989 5,6   4,2                
30.01.1989 6,3   7,3                
31.01.1989 7,2   16,2                
Avrg/Sum 4,9   257,7             5